Weather History for Cambridge, MN

Change the Weather History Date:

Wednesday, May 13, 2009

  Actual Average Record
Temperature  
Mean Temperature 63 °F -  
Max Temperature 73 °F 65 °F 87 °F (1958)
Min Temperature 53 °F 42 °F 23 °F (1997)
Degree Days  
Heating Degree Days 2    
Growing Degree Days 13 (Base 50)    
Moisture  
Dew Point 48 °F    
Average Humidity 68    
Maximum Humidity 100    
Minimum Humidity 22    
Precipitation  
Precipitation 0.01 in - - ()
Sea Level Pressure  
Sea Level Pressure 29.54 in    
Wind  
Wind Speed 15 mph (SSW)    
Max Wind Speed 20 mph    
Max Gust Speed 30 mph    
Visibility 9 miles    
Events Rain    
Averages and records for this station are not official NWS values.
T = Trace of Precipitation, MM = Missing Value Source: NWS Daily Summary

Daily Weather History Graph

Daily Weather History Graph

Search for Another Location

Airport:

Trip Planner

Search our weather history database for the weather conditions in past years. The results will help you decide how hot, cold, wet, or windy it might be!

Date:

Astronomy

May. 13, 2009 Rise Set
Actual Time 5:44 AM CDT 8:35 PM CDT
Civil Twilight 5:09 AM CDT 9:09 PM CDT
Nautical Twilight 4:26 AM CDT 9:53 PM CDT
Astronomical Twilight 3:34 AM CDT 10:45 PM CDT
Moon 12:19 AM CDT (5/13) 8:49 AM CDT (5/13)
Length of Visible Light 15h 59m
Length of Day
14h 50m
Waning Gibbous, 82% of the Moon is Illuminated
May 13
Waning Gibbous
May 17
Last Quarter
May 24
New
May 30
First Quarter
Jun 7
Full

Hourly Weather History & Observations

Time (CDT) Temp. Dew Point Humidity Pressure Visibility Wind Dir Wind Speed Gust Speed Precip Events Conditions
12:15 AM 60.8 °F 51.8 °F 72% 29.66 in 10.0 mi SSE 17.3 mph 24.2 mph N/A   Overcast
12:35 AM 60.8 °F 51.8 °F 72% 29.65 in 10.0 mi SSE 19.6 mph 26.5 mph N/A   Overcast
12:55 AM 60.8 °F 51.8 °F 72% 29.64 in 10.0 mi South 19.6 mph 23.0 mph N/A   Overcast
1:15 AM 60.8 °F 51.8 °F 72% 29.65 in 10.0 mi South 18.4 mph 27.6 mph N/A   Overcast
1:35 AM 59.0 °F 51.8 °F 77% 29.64 in 10.0 mi SSE 16.1 mph 26.5 mph N/A   Overcast
1:55 AM 57.2 °F 51.8 °F 82% 29.64 in 7.0 mi South 16.1 mph 25.3 mph N/A   Light Drizzle
2:15 AM 57.2 °F 53.6 °F 88% 29.64 in 7.0 mi SSE 12.7 mph 25.3 mph N/A   Light Drizzle
2:35 AM 55.4 °F 53.6 °F 94% 29.63 in 4.0 mi SSE 13.8 mph 19.6 mph N/A   Drizzle
2:55 AM 55.4 °F 53.6 °F 94% 29.62 in 4.0 mi SSE 15.0 mph 24.2 mph N/A   Drizzle
3:15 AM 53.6 °F 53.6 °F 100% 29.61 in 4.0 mi SSE 13.8 mph 26.5 mph N/A   Drizzle
3:35 AM 53.6 °F 51.8 °F 94% 29.59 in 3.0 mi SSE 16.1 mph 21.9 mph N/A Rain Rain
3:55 AM 53.6 °F 51.8 °F 94% 29.58 in 5.0 mi SSE 15.0 mph 23.0 mph N/A Rain Light Rain
4:15 AM 53.6 °F 51.8 °F 94% 29.59 in 7.0 mi SSE 19.6 mph 24.2 mph N/A   Light Drizzle
4:35 AM 53.6 °F 51.8 °F 94% 29.56 in 5.0 mi SSE 16.1 mph 24.2 mph N/A Rain Rain
4:55 AM 53.6 °F 51.8 °F 94% 29.57 in 7.0 mi SSE 15.0 mph 25.3 mph N/A   Light Drizzle
5:15 AM 53.6 °F 51.8 °F 94% 29.55 in 5.0 mi SSE 15.0 mph 23.0 mph N/A Rain Rain
5:35 AM 53.6 °F 51.8 °F 94% 29.54 in 3.0 mi SE 12.7 mph 21.9 mph 0.01 in   Drizzle
5:55 AM 53.6 °F 53.6 °F 100% 29.53 in 5.0 mi SSE 11.5 mph 25.3 mph 0.01 in   Light Drizzle
6:15 AM 53.6 °F 53.6 °F 100% 29.53 in 7.0 mi SSE 17.3 mph 24.2 mph N/A   Light Drizzle
6:35 AM 53.6 °F 53.6 °F 100% 29.53 in 10.0 mi SSE 17.3 mph 26.5 mph N/A   Overcast
6:55 AM 53.6 °F 53.6 °F 100% 29.55 in 10.0 mi South 10.4 mph 19.6 mph N/A   Overcast
7:15 AM 55.4 °F 53.6 °F 94% 29.54 in 10.0 mi South 15.0 mph 20.7 mph N/A   Overcast
7:35 AM 55.4 °F 53.6 °F 94% 29.55 in 7.0 mi South 16.1 mph 20.7 mph N/A   Overcast
7:55 AM 55.4 °F 53.6 °F 94% 29.55 in 5.0 mi South 11.5 mph 17.3 mph N/A   Drizzle
8:15 AM 55.4 °F 55.4 °F 100% 29.54 in 7.0 mi South 11.5 mph - N/A   Light Drizzle
8:35 AM 55.4 °F 55.4 °F 100% 29.54 in 10.0 mi South 10.4 mph 16.1 mph N/A   Overcast
8:55 AM 57.2 °F 55.4 °F 94% 29.53 in 10.0 mi South 11.5 mph 17.3 mph N/A   Overcast
9:15 AM 57.2 °F 55.4 °F 94% 29.53 in 10.0 mi South 9.2 mph - N/A   Overcast
9:35 AM 57.2 °F 57.2 °F 100% 29.52 in 10.0 mi South 8.1 mph - N/A   Overcast
9:55 AM 59.0 °F 57.2 °F 94% 29.53 in 10.0 mi South 8.1 mph - N/A   Mostly Cloudy
10:15 AM 60.8 °F 59.0 °F 94% 29.53 in 10.0 mi South 8.1 mph - N/A   Mostly Cloudy
10:35 AM 60.8 °F 60.8 °F 100% 29.53 in 10.0 mi SSW 8.1 mph - N/A   Mostly Cloudy
10:55 AM 60.8 °F 60.8 °F 100% 29.52 in 10.0 mi SW 5.8 mph 17.3 mph N/A   Clear
11:15 AM 62.6 °F 60.8 °F 94% 29.52 in 10.0 mi SSW 11.5 mph 17.3 mph N/A   Scattered Clouds
11:35 AM 68.0 °F 55.4 °F 64% 29.51 in 10.0 mi SW 9.2 mph 17.3 mph N/A   Scattered Clouds
11:55 AM 69.8 °F 51.8 °F 53% 29.51 in 10.0 mi WSW 9.2 mph 16.1 mph N/A   Clear
12:15 PM 71.6 °F 51.8 °F 50% 29.51 in 10.0 mi WSW 9.2 mph 19.6 mph N/A   Clear
12:35 PM 73.4 °F 46.4 °F 38% 29.50 in 10.0 mi West 11.5 mph 17.3 mph N/A   Clear
12:55 PM 73.4 °F 42.8 °F 33% 29.50 in 10.0 mi West 10.4 mph 16.1 mph N/A   Clear
1:15 PM 71.6 °F 39.2 °F 31% 29.50 in 10.0 mi West 10.4 mph 18.4 mph N/A   Clear
1:35 PM 71.6 °F 41.0 °F 33% 29.51 in 10.0 mi WSW 9.2 mph 16.1 mph N/A   Scattered Clouds
1:55 PM 69.8 °F 42.8 °F 38% 29.54 in 10.0 mi SSW 9.2 mph - N/A   Clear
2:15 PM 69.8 °F 44.6 °F 40% 29.53 in 10.0 mi SSW 13.8 mph 19.6 mph N/A   Clear
2:35 PM 69.8 °F 42.8 °F 38% 29.51 in 10.0 mi SSW 11.5 mph 18.4 mph N/A   Clear
2:55 PM 71.6 °F 42.8 °F 35% 29.51 in 10.0 mi SSW 12.7 mph - N/A   Clear
3:15 PM 71.6 °F 42.8 °F 35% 29.50 in 10.0 mi SSW 15.0 mph 21.9 mph N/A   Clear
3:35 PM 71.6 °F 39.2 °F 31% 29.50 in 10.0 mi WSW 11.5 mph 23.0 mph N/A   Clear
3:55 PM 73.4 °F 33.8 °F 23% 29.50 in 10.0 mi WSW 18.4 mph 29.9 mph N/A   Clear
4:15 PM 73.4 °F 35.6 °F 25% 29.51 in 10.0 mi West 13.8 mph 19.6 mph N/A   Clear
4:35 PM 71.6 °F 37.4 °F 29% 29.51 in 10.0 mi West 10.4 mph 20.7 mph N/A   Clear
4:55 PM 71.6 °F 37.4 °F 29% 29.50 in 10.0 mi West 10.4 mph - N/A   Scattered Clouds
5:15 PM 73.4 °F 37.4 °F 27% 29.50 in 10.0 mi West 11.5 mph 17.3 mph N/A   Scattered Clouds
5:35 PM 73.4 °F 35.6 °F 25% 29.49 in 10.0 mi West 13.8 mph 25.3 mph N/A   Clear
5:55 PM 71.6 °F 35.6 °F 27% 29.50 in 10.0 mi West 15.0 mph 21.9 mph N/A   Scattered Clouds
6:15 PM 71.6 °F 33.8 °F 25% 29.49 in 10.0 mi West 19.6 mph 26.5 mph N/A   Scattered Clouds
6:35 PM 71.6 °F 30.2 °F 22% 29.49 in 10.0 mi SW 12.7 mph 25.3 mph N/A   Scattered Clouds
6:55 PM 69.8 °F 32.0 °F 25% 29.51 in 10.0 mi West 15.0 mph 24.2 mph N/A   Scattered Clouds
7:15 PM 66.2 °F 33.8 °F 30% 29.53 in 10.0 mi West 19.6 mph 29.9 mph N/A   Scattered Clouds
7:35 PM 62.6 °F 33.8 °F 34% 29.55 in 4.0 mi West 24.2 mph 36.8 mph N/A   Haze
7:55 PM 62.6 °F 33.8 °F 34% 29.55 in 10.0 mi West 13.8 mph 21.9 mph N/A   Scattered Clouds
8:15 PM 60.8 °F 32.0 °F 34% 29.55 in 10.0 mi West 9.2 mph 21.9 mph N/A   Clear
8:35 PM 60.8 °F 32.0 °F 34% 29.56 in 10.0 mi West 12.7 mph 18.4 mph N/A   Clear
8:55 PM 60.8 °F 26.6 °F 27% 29.56 in 10.0 mi West 17.3 mph 27.6 mph N/A   Clear
9:15 PM 59.0 °F 26.6 °F 29% 29.57 in 10.0 mi West 12.7 mph 21.9 mph N/A   Clear
9:35 PM 57.2 °F 28.4 °F 33% 29.57 in 10.0 mi West 12.7 mph 20.7 mph N/A   Clear
9:55 PM 55.4 °F 32.0 °F 41% 29.58 in 10.0 mi West 21.9 mph 32.2 mph N/A   Clear
10:15 PM 53.6 °F 33.8 °F 47% 29.60 in 10.0 mi West 15.0 mph 23.0 mph N/A   Clear
10:35 PM 53.6 °F 35.6 °F 51% 29.61 in 10.0 mi West 13.8 mph 23.0 mph N/A   Scattered Clouds
10:55 PM 53.6 °F 35.6 °F 51% 29.61 in 10.0 mi West 11.5 mph 18.4 mph N/A   Mostly Cloudy
11:15 PM 51.8 °F 35.6 °F 54% 29.61 in 10.0 mi West 9.2 mph - N/A   Scattered Clouds
11:35 PM 51.8 °F 35.6 °F 54% 29.62 in 10.0 mi West 8.1 mph - N/A   Clear
11:55 PM 51.8 °F 35.6 °F 54% 29.63 in 10.0 mi WSW 8.1 mph 17.3 mph N/A   Scattered Clouds